createdAt,value
2022-08-26T00:00:10.072Z,976.76
2022-08-26T00:01:09.955Z,976.76
2022-08-26T00:02:10.004Z,976.72
2022-08-26T00:03:09.932Z,976.70
2022-08-26T00:04:11.052Z,976.68
2022-08-26T00:05:09.943Z,976.68
2022-08-26T00:06:09.998Z,976.70
2022-08-26T00:07:09.890Z,976.69
2022-08-26T00:08:09.895Z,976.73
2022-08-26T00:09:09.884Z,976.68
2022-08-26T00:10:09.935Z,976.69
2022-08-26T00:11:09.827Z,976.68
2022-08-26T00:12:12.436Z,976.73
2022-08-26T00:13:09.811Z,976.70
2022-08-26T00:14:09.854Z,976.73
2022-08-26T00:15:09.885Z,976.78
2022-08-26T00:16:09.806Z,976.80
2022-08-26T00:17:09.777Z,976.77
2022-08-26T00:18:21.721Z,976.78
2022-08-26T00:19:10.717Z,976.77
2022-08-26T00:20:09.818Z,976.75
2022-08-26T00:21:09.697Z,976.81
2022-08-26T00:22:10.725Z,976.79
2022-08-26T00:23:09.706Z,976.79
2022-08-26T00:24:09.718Z,976.76
2022-08-26T00:25:09.649Z,976.85
2022-08-26T00:26:09.639Z,976.82
2022-08-26T00:27:09.621Z,976.92
2022-08-26T00:28:09.651Z,976.82
2022-08-26T00:29:09.604Z,976.93
2022-08-26T00:30:09.691Z,976.84
2022-08-26T00:31:10.899Z,976.88
2022-08-26T00:32:09.607Z,976.84
2022-08-26T00:33:09.775Z,976.84
2022-08-26T00:34:09.728Z,976.78
2022-08-26T00:35:09.621Z,976.84
2022-08-26T00:36:12.853Z,976.82
2022-08-26T00:37:13.403Z,976.85
2022-08-26T00:38:10.532Z,976.79
2022-08-26T00:39:09.515Z,976.85
2022-08-26T00:40:09.583Z,976.81
2022-08-26T00:41:09.527Z,976.82
2022-08-26T00:42:09.433Z,976.82
2022-08-26T00:43:09.675Z,976.82
2022-08-26T00:44:09.403Z,976.83
2022-08-26T00:45:11.673Z,976.84
2022-08-26T00:46:09.417Z,976.74
2022-08-26T00:47:09.473Z,976.81
2022-08-26T00:48:09.358Z,976.80
2022-08-26T00:49:11.928Z,976.86
2022-08-26T00:50:09.336Z,976.78
2022-08-26T00:51:09.307Z,976.82
2022-08-26T00:52:09.866Z,976.78
2022-08-26T00:53:09.286Z,976.82
2022-08-26T00:54:10.815Z,976.86
2022-08-26T00:55:09.277Z,976.86
2022-08-26T00:56:10.355Z,976.85
2022-08-26T00:57:30.326Z,976.88
2022-08-26T00:58:09.244Z,976.87
2022-08-26T00:59:09.247Z,976.85
2022-08-26T01:00:09.290Z,976.88
2022-08-26T01:01:09.299Z,976.85
2022-08-26T01:02:09.289Z,976.90
2022-08-26T01:03:11.633Z,976.92
2022-08-26T01:04:09.180Z,976.81
2022-08-26T01:05:09.219Z,976.86
2022-08-26T01:06:12.475Z,976.85
2022-08-26T01:07:09.204Z,976.82
2022-08-26T01:08:10.133Z,976.83
2022-08-26T01:09:09.116Z,976.76
2022-08-26T01:10:09.149Z,976.79
2022-08-26T01:11:09.122Z,976.87
2022-08-26T01:12:09.125Z,976.81
2022-08-26T01:13:09.288Z,976.80
2022-08-26T01:14:09.020Z,976.79
2022-08-26T01:15:09.083Z,976.86
2022-08-26T01:16:09.049Z,976.82
2022-08-26T01:17:09.056Z,976.81
2022-08-26T01:18:09.034Z,976.78
2022-08-26T01:19:08.982Z,976.83
2022-08-26T01:20:09.001Z,976.88
2022-08-26T01:21:10.952Z,976.88
2022-08-26T01:22:10.953Z,976.80
2022-08-26T01:23:09.002Z,976.84
2022-08-26T01:24:08.901Z,976.86
2022-08-26T01:25:08.955Z,976.85
2022-08-26T01:26:08.943Z,976.83
2022-08-26T01:27:10.863Z,976.81
2022-08-26T01:28:08.933Z,976.78
2022-08-26T01:29:08.833Z,976.86
2022-08-26T01:30:08.885Z,976.84
2022-08-26T01:31:08.940Z,976.82
2022-08-26T01:32:08.874Z,976.85
2022-08-26T01:33:10.835Z,976.89
2022-08-26T01:35:18.995Z,976.83
2022-08-26T01:36:40.004Z,976.86
2022-08-26T01:37:18.945Z,976.85
2022-08-26T01:38:19.024Z,976.86
2022-08-26T01:39:18.926Z,976.82
2022-08-26T01:40:27.666Z,976.90
2022-08-26T01:41:40.973Z,976.84
2022-08-26T01:42:18.884Z,976.86
2022-08-26T01:44:29.101Z,976.84
2022-08-26T01:45:29.146Z,976.81
2022-08-26T01:46:29.071Z,976.82
2022-08-26T01:47:30.087Z,976.77
2022-08-26T01:49:39.291Z,976.78
2022-08-26T01:50:39.324Z,976.74
2022-08-26T01:51:39.333Z,976.72
2022-08-26T01:52:39.338Z,976.74
2022-08-26T01:53:39.213Z,976.72
2022-08-26T01:54:40.242Z,976.69
2022-08-26T01:55:39.212Z,976.68
2022-08-26T01:56:40.255Z,976.73
2022-08-26T01:57:39.174Z,976.70
2022-08-26T01:58:39.243Z,976.71
2022-08-26T01:59:39.155Z,976.69
2022-08-26T02:00:39.226Z,976.69
2022-08-26T02:01:39.178Z,976.76
2022-08-26T02:02:39.097Z,976.73
2022-08-26T02:03:39.242Z,976.79
2022-08-26T02:04:39.138Z,976.69
2022-08-26T02:05:39.127Z,976.72
2022-08-26T02:06:40.123Z,976.76
2022-08-26T02:07:39.118Z,976.67
2022-08-26T02:08:39.116Z,976.73
2022-08-26T02:09:41.140Z,976.78
2022-08-26T02:10:38.996Z,976.68
2022-08-26T02:11:39.041Z,976.74
2022-08-26T02:12:39.037Z,976.69
2022-08-26T02:13:39.049Z,976.64
2022-08-26T02:14:43.577Z,976.75
2022-08-26T02:15:40.016Z,976.69
2022-08-26T02:17:49.169Z,976.70
2022-08-26T02:18:50.240Z,976.71
2022-08-26T02:19:49.127Z,976.71
2022-08-26T02:20:51.572Z,976.68
2022-08-26T02:21:51.075Z,976.73
2022-08-26T02:22:49.095Z,976.65
2022-08-26T02:23:49.161Z,976.70
2022-08-26T02:24:49.063Z,976.69
2022-08-26T02:25:49.102Z,976.68
2022-08-26T02:26:49.076Z,976.68
2022-08-26T02:27:49.082Z,976.73
2022-08-26T02:28:51.053Z,976.69
2022-08-26T02:29:49.097Z,976.70
2022-08-26T02:30:48.993Z,976.68
2022-08-26T02:31:49.058Z,976.71
2022-08-26T02:32:49.550Z,976.69
2022-08-26T02:33:49.044Z,976.72
2022-08-26T02:34:49.024Z,976.68
2022-08-26T02:35:48.935Z,976.70
2022-08-26T02:36:48.944Z,976.71
2022-08-26T02:37:49.305Z,976.72
2022-08-26T02:38:48.946Z,976.70
2022-08-26T02:39:49.003Z,976.70
2022-08-26T02:40:48.874Z,976.70
2022-08-26T02:41:48.975Z,976.72
2022-08-26T02:42:48.879Z,976.72
2022-08-26T02:43:48.818Z,976.75
2022-08-26T02:44:48.817Z,976.75
2022-08-26T02:45:52.007Z,976.71
2022-08-26T02:46:48.814Z,976.72
2022-08-26T02:47:48.810Z,976.75
2022-08-26T02:48:48.818Z,976.76
2022-08-26T02:49:48.830Z,976.78
2022-08-26T02:50:48.730Z,976.78
2022-08-26T02:51:48.757Z,976.82
2022-08-26T02:53:58.927Z,976.78
2022-08-26T02:54:58.989Z,976.78
2022-08-26T02:55:58.920Z,976.73
2022-08-26T02:56:59.013Z,976.73
2022-08-26T02:57:58.881Z,976.70
2022-08-26T03:00:09.098Z,976.66
2022-08-26T03:01:09.132Z,976.64
2022-08-26T03:02:09.195Z,976.57
2022-08-26T03:03:09.345Z,976.64
2022-08-26T03:04:09.097Z,976.64
2022-08-26T03:05:09.034Z,976.69
2022-08-26T03:06:09.017Z,976.70
2022-08-26T03:07:09.120Z,976.67
2022-08-26T03:08:09.019Z,976.66
2022-08-26T03:09:09.011Z,976.65
2022-08-26T03:10:09.984Z,976.59
2022-08-26T03:11:09.034Z,976.62
2022-08-26T03:12:09.041Z,976.57
2022-08-26T03:13:09.177Z,976.60
2022-08-26T03:14:08.960Z,976.57
2022-08-26T03:15:16.400Z,976.57
2022-08-26T03:16:10.121Z,976.54
2022-08-26T03:17:09.900Z,976.55
2022-08-26T03:18:08.850Z,976.56
2022-08-26T03:19:08.897Z,976.55
2022-08-26T03:20:08.945Z,976.57
2022-08-26T03:21:08.913Z,976.56
2022-08-26T03:22:08.918Z,976.54
2022-08-26T03:23:09.098Z,976.53
2022-08-26T03:24:08.830Z,976.48
2022-08-26T03:25:08.779Z,976.51
2022-08-26T03:26:08.836Z,976.48
2022-08-26T03:27:08.733Z,976.42
2022-08-26T03:28:09.628Z,976.49
2022-08-26T03:29:08.753Z,976.43
2022-08-26T03:30:08.803Z,976.47
2022-08-26T03:31:08.734Z,976.42
2022-08-26T03:32:08.663Z,976.43
2022-08-26T03:33:08.825Z,976.46
2022-08-26T03:34:08.682Z,976.53
2022-08-26T03:35:08.716Z,976.51
2022-08-26T03:36:08.696Z,976.36
2022-08-26T03:37:09.415Z,976.45
2022-08-26T03:38:08.584Z,976.47
2022-08-26T03:39:08.612Z,976.46
2022-08-26T03:40:08.711Z,976.44
2022-08-26T03:41:08.546Z,976.44
2022-08-26T03:42:08.645Z,976.41
2022-08-26T03:43:09.856Z,976.43
2022-08-26T03:44:08.555Z,976.44
2022-08-26T03:45:10.543Z,976.50
2022-08-26T03:46:08.597Z,976.50
2022-08-26T03:47:08.577Z,976.53
2022-08-26T03:48:08.485Z,976.49
2022-08-26T03:49:08.438Z,976.47
2022-08-26T04:03:41.522Z,976.46
2022-08-26T04:04:41.492Z,976.38
2022-08-26T04:05:41.494Z,976.41
2022-08-26T04:06:41.464Z,976.45
2022-08-26T04:07:41.444Z,976.56
2022-08-26T04:08:41.457Z,976.49
2022-08-26T04:09:41.426Z,976.49
2022-08-26T04:10:41.443Z,976.50
2022-08-26T04:11:41.396Z,976.43
2022-08-26T04:12:41.394Z,976.47
2022-08-26T04:13:41.385Z,976.43
2022-08-26T04:14:41.377Z,976.45
2022-08-26T04:15:41.407Z,976.46
2022-08-26T04:16:41.333Z,976.56
2022-08-26T04:17:48.872Z,976.47
2022-08-26T04:18:46.509Z,976.49
2022-08-26T04:19:42.307Z,976.44
2022-08-26T04:20:41.300Z,976.48
2022-08-26T04:21:41.284Z,976.49
2022-08-26T04:22:41.279Z,976.43
2022-08-26T04:23:47.496Z,976.45
2022-08-26T04:24:42.247Z,976.43
2022-08-26T04:25:41.229Z,976.43
2022-08-26T04:26:42.878Z,976.46
2022-08-26T04:27:41.214Z,976.44
2022-08-26T04:28:41.190Z,976.49
2022-08-26T04:29:41.172Z,976.45
2022-08-26T04:30:41.198Z,976.47
2022-08-26T04:31:41.193Z,976.43
2022-08-26T04:32:41.125Z,976.42
2022-08-26T04:33:41.916Z,976.47
2022-08-26T04:34:42.105Z,976.47
2022-08-26T04:35:41.113Z,976.47
2022-08-26T04:36:41.091Z,976.39
2022-08-26T04:37:43.049Z,976.41
2022-08-26T04:38:41.053Z,976.38
2022-08-26T04:39:41.035Z,976.41
2022-08-26T04:40:41.052Z,976.37
2022-08-26T04:41:42.012Z,976.39
2022-08-26T04:42:40.992Z,976.40
2022-08-26T04:43:40.982Z,976.39
2022-08-26T04:44:40.997Z,976.42
2022-08-26T04:45:40.990Z,976.41
2022-08-26T04:46:43.968Z,976.45
2022-08-26T04:47:40.955Z,976.44
2022-08-26T04:48:41.160Z,976.43
2022-08-26T04:49:40.913Z,976.45
2022-08-26T04:50:40.930Z,976.42
2022-08-26T04:51:40.885Z,976.41
2022-08-26T04:52:40.889Z,976.46
2022-08-26T04:53:40.854Z,976.40
2022-08-26T04:54:41.908Z,976.50
2022-08-26T04:55:42.862Z,976.47
2022-08-26T04:56:40.825Z,976.45
2022-08-26T04:57:40.815Z,976.50
2022-08-26T04:58:40.805Z,976.52
2022-08-26T04:59:40.786Z,976.55
2022-08-26T05:00:40.795Z,976.55
2022-08-26T05:01:40.817Z,976.53
2022-08-26T05:02:40.768Z,976.50
2022-08-26T05:03:40.944Z,976.50
2022-08-26T05:04:40.727Z,976.54
2022-08-26T05:05:40.720Z,976.53
2022-08-26T05:06:40.700Z,976.57
2022-08-26T05:07:40.681Z,976.57
2022-08-26T05:08:40.668Z,976.62
2022-08-26T05:09:40.656Z,976.58
2022-08-26T05:10:40.662Z,976.53
2022-08-26T05:11:40.641Z,976.55
2022-08-26T05:12:40.640Z,976.63
2022-08-26T05:13:40.601Z,976.63
2022-08-26T05:14:40.601Z,976.59
2022-08-26T05:15:41.634Z,976.59
2022-08-26T05:16:40.614Z,976.56
2022-08-26T05:17:40.575Z,976.65
2022-08-26T05:18:40.611Z,976.62
2022-08-26T05:19:42.957Z,976.63
2022-08-26T05:20:40.528Z,976.60
2022-08-26T05:21:41.503Z,976.67
2022-08-26T05:22:40.481Z,976.70
2022-08-26T05:23:40.463Z,976.64
2022-08-26T05:24:40.452Z,976.66
2022-08-26T05:25:40.474Z,976.65
2022-08-26T05:26:41.433Z,976.69
2022-08-26T05:27:40.413Z,976.69
2022-08-26T05:28:40.443Z,976.67
2022-08-26T05:29:40.395Z,976.65
2022-08-26T05:30:40.535Z,976.65
2022-08-26T05:31:40.370Z,976.69
2022-08-26T05:32:40.353Z,976.62
2022-08-26T05:33:41.291Z,976.63
2022-08-26T05:34:40.334Z,976.69
2022-08-26T05:35:41.314Z,976.70
2022-08-26T05:36:40.341Z,976.72
2022-08-26T05:37:40.305Z,976.75
2022-08-26T05:38:40.276Z,976.71
2022-08-26T05:39:41.250Z,976.75
2022-08-26T05:40:40.312Z,976.76
2022-08-26T05:41:40.256Z,976.79
2022-08-26T05:42:40.226Z,976.79
2022-08-26T05:43:40.205Z,976.78
2022-08-26T05:44:55.675Z,976.79
2022-08-26T05:45:45.828Z,976.82
2022-08-26T05:46:41.269Z,976.77
2022-08-26T05:47:40.158Z,976.78
2022-08-26T05:48:40.160Z,976.79
2022-08-26T05:49:45.170Z,976.80
2022-08-26T05:50:41.138Z,976.78
2022-08-26T05:51:40.133Z,976.78
2022-08-26T05:52:40.100Z,976.76
2022-08-26T05:53:40.075Z,976.79
2022-08-26T05:54:40.071Z,976.78
2022-08-26T05:55:40.050Z,976.79
2022-08-26T05:56:40.069Z,976.77
2022-08-26T05:57:42.852Z,976.81
2022-08-26T05:58:40.034Z,976.76
2022-08-26T05:59:40.009Z,976.80
2022-08-26T06:00:40.015Z,976.75
2022-08-26T06:01:40.033Z,976.76
2022-08-26T06:02:40.030Z,976.78
2022-08-26T06:03:39.961Z,976.76
2022-08-26T06:04:39.954Z,976.76
2022-08-26T06:05:39.934Z,976.71
2022-08-26T06:06:39.939Z,976.72
2022-08-26T06:07:39.902Z,976.70
2022-08-26T06:08:39.914Z,976.73
2022-08-26T06:09:39.871Z,976.72
2022-08-26T06:10:39.864Z,976.73
2022-08-26T06:11:39.854Z,976.79
2022-08-26T06:12:39.846Z,976.77
2022-08-26T06:13:39.822Z,976.79
2022-08-26T06:14:39.813Z,976.84
2022-08-26T06:15:39.853Z,976.82
2022-08-26T06:16:40.937Z,976.84
2022-08-26T06:17:39.772Z,976.81
2022-08-26T06:18:39.763Z,976.85
2022-08-26T06:19:41.356Z,976.84
2022-08-26T06:20:39.732Z,976.83
2022-08-26T06:21:39.726Z,976.85
2022-08-26T06:22:39.704Z,976.86
2022-08-26T06:23:39.684Z,976.85
2022-08-26T06:24:39.682Z,976.79
2022-08-26T06:25:39.663Z,976.83
2022-08-26T06:26:39.666Z,976.79
2022-08-26T06:27:39.645Z,976.79
2022-08-26T06:28:39.678Z,976.80
2022-08-26T06:29:39.618Z,976.78
2022-08-26T06:30:39.594Z,976.77
2022-08-26T06:31:40.029Z,976.80
2022-08-26T06:32:39.589Z,976.82
2022-08-26T06:33:40.550Z,976.79
2022-08-26T06:34:39.562Z,976.79
2022-08-26T06:35:39.530Z,976.82
2022-08-26T06:36:41.529Z,976.75
2022-08-26T06:37:39.488Z,976.77
2022-08-26T06:38:39.498Z,976.79
2022-08-26T06:39:41.249Z,976.83
2022-08-26T06:40:39.468Z,976.79
2022-08-26T06:41:43.388Z,976.78
2022-08-26T06:42:39.450Z,976.82
2022-08-26T06:43:39.423Z,976.83
2022-08-26T06:44:40.951Z,976.76
2022-08-26T06:45:39.412Z,976.81
2022-08-26T06:46:40.460Z,976.80
2022-08-26T06:47:39.403Z,976.83
2022-08-26T06:48:39.372Z,976.81
2022-08-26T06:49:39.843Z,976.80
2022-08-26T06:50:39.341Z,976.79
2022-08-26T06:51:39.631Z,976.83
2022-08-26T06:52:39.332Z,976.78
2022-08-26T06:53:39.330Z,976.85
2022-08-26T06:54:39.323Z,976.87
2022-08-26T06:55:39.282Z,976.81
2022-08-26T06:56:39.281Z,976.82
2022-08-26T06:57:41.047Z,976.77
2022-08-26T06:58:39.253Z,976.82
2022-08-26T06:59:39.247Z,976.78
2022-08-26T07:00:39.224Z,976.79
2022-08-26T07:01:39.271Z,976.78
2022-08-26T07:02:39.226Z,976.78
2022-08-26T07:03:40.183Z,976.81
2022-08-26T07:04:39.185Z,976.83
2022-08-26T07:05:39.146Z,976.81
2022-08-26T07:06:39.191Z,976.77
2022-08-26T07:07:39.136Z,976.77
2022-08-26T07:08:40.126Z,976.74
2022-08-26T07:09:39.109Z,976.80
2022-08-26T07:10:39.125Z,976.71
2022-08-26T07:11:39.096Z,976.78
2022-08-26T07:12:39.068Z,976.72
2022-08-26T07:13:39.059Z,976.77
2022-08-26T07:14:39.108Z,976.72
2022-08-26T07:15:39.077Z,976.73
2022-08-26T07:16:39.053Z,976.80
2022-08-26T07:17:39.015Z,976.73
2022-08-26T07:18:39.003Z,976.77
2022-08-26T07:19:38.977Z,976.83
2022-08-26T07:20:38.987Z,976.85
2022-08-26T07:21:38.974Z,976.83
2022-08-26T07:22:38.947Z,976.84
2022-08-26T07:23:38.940Z,976.83
2022-08-26T07:24:38.910Z,976.82
2022-08-26T07:25:38.912Z,976.80
2022-08-26T07:26:38.922Z,976.82
2022-08-26T07:27:38.879Z,976.80
2022-08-26T07:28:38.877Z,976.82
2022-08-26T07:29:38.861Z,976.83
2022-08-26T07:30:38.886Z,976.79
2022-08-26T07:31:39.556Z,976.85
2022-08-26T07:32:38.812Z,976.85
2022-08-26T07:33:38.817Z,976.82
2022-08-26T07:34:38.815Z,976.86
2022-08-26T07:35:38.772Z,976.86
2022-08-26T07:36:38.773Z,976.88
2022-08-26T07:37:39.288Z,976.86
2022-08-26T07:38:38.744Z,976.88
2022-08-26T07:39:38.726Z,976.92
2022-08-26T07:40:38.715Z,976.88
2022-08-26T07:41:38.703Z,976.94
2022-08-26T07:42:38.674Z,976.95
2022-08-26T07:43:39.663Z,976.87
2022-08-26T07:44:38.664Z,976.86
2022-08-26T07:45:38.624Z,976.86
2022-08-26T07:46:38.654Z,976.84
2022-08-26T07:47:38.626Z,976.82
2022-08-26T07:48:38.599Z,976.83
2022-08-26T07:49:38.625Z,976.81
2022-08-26T07:50:49.126Z,976.87
2022-08-26T07:51:39.555Z,976.83
2022-08-26T07:52:38.556Z,976.84
2022-08-26T07:53:38.543Z,976.80
2022-08-26T07:54:38.526Z,976.82
2022-08-26T07:55:38.501Z,976.90
2022-08-26T07:56:38.488Z,976.84
2022-08-26T07:57:38.491Z,976.85
2022-08-26T07:58:38.474Z,976.80
2022-08-26T07:59:38.457Z,976.87
2022-08-26T08:00:38.452Z,976.85
2022-08-26T08:01:38.810Z,976.78
2022-08-26T08:02:38.411Z,976.79
2022-08-26T08:03:38.411Z,976.82
2022-08-26T08:04:38.409Z,976.85
2022-08-26T08:05:38.413Z,976.78
2022-08-26T08:06:38.354Z,976.70
2022-08-26T08:07:45.407Z,976.70
2022-08-26T08:08:39.330Z,976.70
2022-08-26T08:09:38.323Z,976.77
2022-08-26T08:10:38.310Z,976.79
2022-08-26T08:11:38.292Z,976.75
2022-08-26T08:12:38.284Z,976.73
2022-08-26T08:13:38.253Z,976.76
2022-08-26T08:14:38.242Z,976.74
2022-08-26T08:15:38.253Z,976.74
2022-08-26T08:16:41.547Z,976.67
2022-08-26T08:17:39.228Z,976.65
2022-08-26T08:18:38.224Z,976.67
2022-08-26T08:19:39.184Z,976.63
2022-08-26T08:20:38.174Z,976.67
2022-08-26T08:21:38.169Z,976.65
2022-08-26T08:22:38.147Z,976.67
2022-08-26T08:23:38.149Z,976.70
2022-08-26T08:24:38.124Z,976.65
2022-08-26T08:25:38.115Z,976.65
2022-08-26T08:26:38.084Z,976.65
2022-08-26T08:27:38.092Z,976.60
2022-08-26T08:28:38.065Z,976.63
2022-08-26T08:29:38.057Z,976.59
2022-08-26T08:30:38.063Z,976.59
2022-08-26T08:31:56.748Z,976.63
2022-08-26T08:32:39.032Z,976.59
2022-08-26T08:33:37.999Z,976.63
2022-08-26T08:34:37.988Z,976.63
2022-08-26T08:35:37.970Z,976.59
2022-08-26T08:36:37.963Z,976.60
2022-08-26T08:37:37.979Z,976.57
2022-08-26T08:38:37.927Z,976.65
2022-08-26T08:39:37.940Z,976.53
2022-08-26T08:40:37.954Z,976.61
2022-08-26T08:41:37.902Z,976.55
2022-08-26T08:42:37.879Z,976.55
2022-08-26T08:43:37.910Z,976.53
2022-08-26T08:44:37.862Z,976.52
2022-08-26T08:45:37.851Z,976.44
2022-08-26T08:46:37.826Z,976.44
2022-08-26T08:47:37.841Z,976.44
2022-08-26T08:48:37.811Z,976.44
2022-08-26T08:49:37.800Z,976.37
2022-08-26T08:50:37.791Z,976.43
2022-08-26T08:51:37.765Z,976.44
2022-08-26T08:52:37.771Z,976.50
2022-08-26T08:53:37.751Z,976.39
2022-08-26T08:54:38.754Z,976.46
2022-08-26T08:55:37.713Z,976.41
2022-08-26T08:56:37.692Z,976.43
2022-08-26T08:57:37.695Z,976.40
2022-08-26T08:58:37.684Z,976.36
2022-08-26T08:59:38.448Z,976.37
2022-08-26T09:00:39.757Z,976.37
2022-08-26T09:01:37.674Z,976.35
2022-08-26T09:02:37.685Z,976.31
2022-08-26T09:03:37.615Z,976.34
2022-08-26T09:04:38.587Z,976.33
2022-08-26T09:05:40.268Z,976.32
2022-08-26T09:06:37.576Z,976.29
2022-08-26T09:07:37.659Z,976.31
2022-08-26T09:08:37.566Z,976.29
2022-08-26T09:09:38.534Z,976.31
2022-08-26T09:10:37.537Z,976.28
2022-08-26T09:11:37.516Z,976.25
2022-08-26T09:12:37.508Z,976.25
2022-08-26T09:13:37.507Z,976.28
2022-08-26T09:14:37.466Z,976.24
2022-08-26T09:15:37.472Z,976.24
2022-08-26T09:16:37.512Z,976.19
2022-08-26T09:17:37.439Z,976.25
2022-08-26T09:18:37.415Z,976.22
2022-08-26T09:19:37.413Z,976.19
2022-08-26T09:20:37.399Z,976.19
2022-08-26T09:21:37.400Z,976.16
2022-08-26T09:22:37.380Z,976.23
2022-08-26T09:23:37.369Z,976.22
2022-08-26T09:24:41.780Z,976.18
2022-08-26T09:25:38.341Z,976.19
2022-08-26T09:26:37.332Z,976.13
2022-08-26T09:27:37.617Z,976.14
2022-08-26T09:28:37.287Z,976.06
2022-08-26T09:29:37.285Z,976.08
2022-08-26T09:30:37.341Z,976.05
2022-08-26T09:31:37.246Z,976.02
2022-08-26T09:32:37.251Z,976.02
2022-08-26T09:33:37.263Z,976.00
2022-08-26T09:34:37.245Z,976.05
2022-08-26T09:35:37.231Z,975.98
2022-08-26T09:36:41.204Z,975.94
2022-08-26T09:37:37.273Z,975.95
2022-08-26T09:38:37.177Z,975.97
2022-08-26T09:39:37.673Z,975.97
2022-08-26T09:40:38.169Z,975.94
2022-08-26T09:41:37.132Z,975.90
2022-08-26T09:42:37.156Z,975.94
2022-08-26T09:43:37.118Z,975.86
2022-08-26T09:44:37.097Z,975.86
2022-08-26T09:45:38.114Z,975.83
2022-08-26T09:46:37.148Z,975.82
2022-08-26T09:47:37.068Z,975.83
2022-08-26T10:03:55.793Z,975.47
2022-08-26T10:04:56.767Z,975.40
2022-08-26T10:05:56.733Z,975.42
2022-08-26T10:06:55.718Z,975.42
2022-08-26T10:07:55.704Z,975.38
2022-08-26T10:08:55.697Z,975.34
2022-08-26T10:09:55.705Z,975.34
2022-08-26T10:10:56.664Z,975.32
2022-08-26T10:11:55.658Z,975.32
2022-08-26T10:12:55.655Z,975.34
2022-08-26T10:13:55.616Z,975.31
2022-08-26T10:14:55.647Z,975.29
2022-08-26T10:15:56.599Z,975.25
2022-08-26T10:16:55.630Z,975.18
2022-08-26T10:17:55.587Z,975.16
2022-08-26T10:18:59.419Z,975.16
2022-08-26T10:19:57.440Z,975.15
2022-08-26T10:20:55.539Z,975.10
2022-08-26T10:21:55.519Z,975.06
2022-08-26T10:22:55.530Z,975.02
2022-08-26T10:23:55.511Z,975.03
2022-08-26T10:24:55.512Z,975.03
2022-08-26T10:25:59.000Z,974.95
2022-08-26T10:26:55.480Z,974.97
2022-08-26T10:27:55.454Z,974.93
2022-08-26T10:28:55.438Z,974.95
2022-08-26T10:29:55.445Z,974.96
2022-08-26T10:30:55.442Z,975.00
2022-08-26T10:31:55.457Z,975.01
2022-08-26T10:32:56.423Z,975.00
2022-08-26T10:33:58.638Z,974.99
2022-08-26T10:34:55.403Z,974.92
2022-08-26T10:35:55.366Z,974.97
2022-08-26T10:37:15.513Z,974.95
2022-08-26T10:37:56.334Z,974.93
2022-08-26T10:38:55.405Z,974.91
2022-08-26T10:39:58.796Z,974.95
2022-08-26T10:40:55.315Z,974.92
2022-08-26T10:41:55.314Z,974.92
2022-08-26T10:42:55.267Z,974.90
2022-08-26T10:43:56.349Z,974.97
2022-08-26T10:44:58.547Z,974.88
2022-08-26T10:45:55.328Z,974.94
2022-08-26T10:46:55.266Z,974.90
2022-08-26T10:47:55.246Z,974.88
2022-08-26T10:48:55.256Z,974.87
2022-08-26T10:50:00.038Z,974.87
2022-08-26T10:51:17.178Z,974.84
2022-08-26T10:51:55.179Z,974.81
2022-08-26T10:52:55.178Z,974.87
2022-08-26T10:53:55.251Z,974.81
2022-08-26T10:54:55.228Z,974.86
2022-08-26T10:55:55.201Z,974.84
2022-08-26T10:56:55.931Z,974.86
2022-08-26T10:57:55.120Z,974.84
2022-08-26T10:58:55.064Z,974.81
2022-08-26T10:59:55.171Z,974.82
2022-08-26T11:00:55.275Z,974.80
2022-08-26T11:01:55.043Z,974.81
2022-08-26T11:02:55.058Z,974.83
2022-08-26T11:03:55.670Z,974.83
2022-08-26T11:04:55.068Z,974.78
2022-08-26T11:05:55.111Z,974.76
2022-08-26T11:06:54.994Z,974.72
2022-08-26T11:09:05.205Z,974.73
2022-08-26T11:10:05.337Z,974.73
2022-08-26T11:11:05.250Z,974.74
2022-08-26T11:12:10.266Z,974.76
2022-08-26T11:13:06.214Z,974.77
2022-08-26T11:14:05.166Z,974.77
2022-08-26T11:15:05.343Z,974.76
2022-08-26T11:16:05.407Z,974.73
2022-08-26T11:17:05.197Z,974.70
2022-08-26T11:18:05.110Z,974.64
2022-08-26T11:19:05.081Z,974.73
2022-08-26T11:20:09.268Z,974.68
2022-08-26T11:21:06.020Z,974.68
2022-08-26T11:22:05.173Z,974.61
2022-08-26T11:23:05.132Z,974.64
2022-08-26T11:24:05.024Z,974.65
2022-08-26T11:25:06.065Z,974.64
2022-08-26T11:26:05.079Z,974.68
2022-08-26T11:27:05.111Z,974.66
2022-08-26T11:28:05.025Z,974.62
2022-08-26T11:29:04.962Z,974.64
2022-08-26T11:30:05.993Z,974.56
2022-08-26T11:31:05.966Z,974.60
2022-08-26T11:32:05.018Z,974.61
2022-08-26T11:33:04.880Z,974.60
2022-08-26T11:34:04.886Z,974.64
2022-08-26T11:35:04.910Z,974.58
2022-08-26T11:36:12.335Z,974.55
2022-08-26T11:37:05.837Z,974.60
2022-08-26T11:38:04.788Z,974.54
2022-08-26T11:39:04.887Z,974.48
2022-08-26T11:40:04.894Z,974.55
2022-08-26T11:41:04.890Z,974.54
2022-08-26T11:42:04.838Z,974.50
2022-08-26T11:43:04.845Z,974.45
2022-08-26T11:44:04.808Z,974.43
2022-08-26T11:45:05.361Z,974.46
2022-08-26T11:46:04.862Z,974.41
2022-08-26T11:47:04.770Z,974.37
2022-08-26T11:48:04.670Z,974.36
2022-08-26T11:49:04.838Z,974.35
2022-08-26T11:50:04.693Z,974.32
2022-08-26T11:51:04.731Z,974.29
2022-08-26T11:52:04.713Z,974.33
2022-08-26T11:53:26.621Z,974.30
2022-08-26T11:54:04.631Z,974.29
2022-08-26T11:55:04.608Z,974.29
2022-08-26T11:56:04.660Z,974.29
2022-08-26T11:57:09.274Z,974.25
2022-08-26T11:58:05.866Z,974.21
2022-08-26T11:59:04.556Z,974.21
2022-08-26T12:00:05.751Z,974.15
2022-08-26T12:01:05.322Z,974.11
2022-08-26T12:02:04.580Z,974.09
2022-08-26T12:03:04.636Z,974.06
2022-08-26T12:04:05.547Z,974.09
2022-08-26T12:05:04.476Z,974.00
2022-08-26T12:06:04.536Z,974.00
2022-08-26T12:07:04.496Z,974.08
2022-08-26T12:08:04.507Z,974.03
2022-08-26T12:09:05.165Z,974.09
2022-08-26T12:10:25.521Z,974.09
2022-08-26T12:11:04.477Z,974.07
2022-08-26T12:12:04.375Z,974.07
2022-08-26T12:13:04.460Z,974.04
2022-08-26T12:14:04.462Z,973.96
2022-08-26T12:15:04.372Z,973.99
2022-08-26T12:16:04.459Z,973.94
2022-08-26T12:17:04.360Z,973.93
2022-08-26T12:18:05.302Z,973.92
2022-08-26T12:19:04.413Z,973.85
2022-08-26T12:20:04.313Z,973.84
2022-08-26T12:21:04.342Z,973.80
2022-08-26T12:22:04.296Z,973.83
2022-08-26T12:23:04.323Z,973.81
2022-08-26T12:24:04.327Z,973.78
2022-08-26T12:25:04.334Z,973.77
2022-08-26T12:26:04.272Z,973.75
2022-08-26T12:27:04.232Z,973.74
2022-08-26T12:28:05.296Z,973.72
2022-08-26T12:29:20.060Z,973.75
2022-08-26T12:30:06.779Z,973.74
2022-08-26T12:31:04.184Z,973.76
2022-08-26T12:32:04.211Z,973.80
2022-08-26T12:33:21.843Z,973.78
2022-08-26T12:34:05.097Z,973.73
2022-08-26T12:36:04.129Z,973.75
2022-08-26T12:37:04.146Z,973.84
2022-08-26T12:38:04.116Z,973.77
2022-08-26T12:39:04.117Z,973.78
2022-08-26T12:40:04.079Z,973.77
2022-08-26T12:41:04.141Z,973.82
2022-08-26T12:42:04.030Z,973.77
2022-08-26T12:43:04.053Z,973.82
2022-08-26T12:44:04.060Z,973.84
2022-08-26T12:45:04.982Z,973.78
2022-08-26T12:46:03.991Z,973.72
2022-08-26T12:47:05.073Z,973.70
2022-08-26T12:48:03.981Z,973.67
2022-08-26T12:49:03.981Z,973.60
2022-08-26T12:50:03.982Z,973.61
2022-08-26T12:51:03.937Z,973.57
2022-08-26T12:52:03.891Z,973.57
2022-08-26T12:53:03.903Z,973.57
2022-08-26T12:54:03.903Z,973.52
2022-08-26T12:55:03.908Z,973.57
2022-08-26T12:56:03.843Z,973.53
2022-08-26T12:57:13.091Z,973.49
2022-08-26T12:58:08.391Z,973.55
2022-08-26T12:59:05.260Z,973.51
2022-08-26T13:00:08.457Z,973.48
2022-08-26T13:01:07.164Z,973.47
2022-08-26T13:02:03.850Z,973.55
2022-08-26T13:03:03.764Z,973.53
2022-08-26T13:04:03.821Z,973.44
2022-08-26T13:05:03.806Z,973.45
2022-08-26T13:06:03.786Z,973.39